createdAt,value
2023-08-19T00:01:28.193Z,26.12
2023-08-19T00:03:56.590Z,26.03
2023-08-19T00:06:35.248Z,26.19
2023-08-19T00:09:05.931Z,26.37
2023-08-19T00:11:33.880Z,25.68
2023-08-19T00:14:01.978Z,26.72
2023-08-19T00:16:29.754Z,25.95
2023-08-19T00:18:57.976Z,26.25
2023-08-19T00:21:25.770Z,26.68
2023-08-19T00:23:54.348Z,26.80
2023-08-19T00:26:23.473Z,26.75
2023-08-19T00:28:51.162Z,27.50
2023-08-19T00:31:19.048Z,27.19
2023-08-19T00:33:46.804Z,27.03
2023-08-19T00:36:14.654Z,26.84
2023-08-19T00:38:42.423Z,26.72
2023-08-19T00:41:10.555Z,26.76
2023-08-19T00:43:39.712Z,26.39
2023-08-19T00:46:09.331Z,26.54
2023-08-19T00:48:37.674Z,26.42
2023-08-19T00:51:07.014Z,26.18
2023-08-19T00:53:35.665Z,25.80
2023-08-19T00:56:04.162Z,25.91
2023-08-19T00:58:32.228Z,26.63
2023-08-19T01:01:01.345Z,26.70
2023-08-19T01:03:29.354Z,26.66
2023-08-19T01:06:07.765Z,26.38
2023-08-19T01:08:42.734Z,26.45
2023-08-19T01:11:16.570Z,26.65
2023-08-19T01:13:51.015Z,26.41
2023-08-19T01:16:25.221Z,26.51
2023-08-19T01:18:53.425Z,26.41
2023-08-19T01:21:21.677Z,26.92
2023-08-19T01:23:50.334Z,26.71
2023-08-19T01:26:20.235Z,25.77
2023-08-19T01:28:48.551Z,25.94
2023-08-19T01:31:16.686Z,25.86
2023-08-19T01:33:44.601Z,26.51
2023-08-19T01:36:17.135Z,26.34
2023-08-19T01:38:51.193Z,26.64
2023-08-19T01:41:21.535Z,25.95
2023-08-19T01:43:49.409Z,25.61
2023-08-19T01:46:17.661Z,25.74
2023-08-19T01:48:45.372Z,25.62
2023-08-19T01:51:13.083Z,26.01
2023-08-19T01:53:40.834Z,25.48
2023-08-19T01:56:08.517Z,26.26
2023-08-19T01:58:37.766Z,25.49
2023-08-19T02:01:05.550Z,26.11
2023-08-19T02:03:33.584Z,25.40
2023-08-19T02:06:01.412Z,25.22
2023-08-19T02:08:29.117Z,25.22
2023-08-19T02:10:57.070Z,25.99
2023-08-19T02:13:24.803Z,25.54
2023-08-19T02:15:54.208Z,25.30
2023-08-19T02:18:23.689Z,25.61
2023-08-19T02:20:51.434Z,24.86
2023-08-19T02:23:19.105Z,25.23
2023-08-19T02:25:46.832Z,24.86
2023-08-19T02:28:14.770Z,25.06
2023-08-19T02:30:42.724Z,25.48
2023-08-19T02:33:12.043Z,25.87
2023-08-19T02:35:39.745Z,25.57
2023-08-19T02:38:07.422Z,25.10
2023-08-19T02:40:35.121Z,25.20
2023-08-19T02:43:03.790Z,25.77
2023-08-19T02:45:36.567Z,25.01
2023-08-19T02:48:04.811Z,24.22
2023-08-19T02:50:34.045Z,25.48
2023-08-19T02:53:01.871Z,25.30
2023-08-19T02:55:29.588Z,25.68
2023-08-19T02:57:57.277Z,25.65
2023-08-19T03:00:25.000Z,25.39
2023-08-19T03:02:52.866Z,25.03
2023-08-19T03:05:21.343Z,25.46
2023-08-19T03:07:50.597Z,25.02
2023-08-19T03:10:18.469Z,25.09
2023-08-19T03:12:46.290Z,25.44
2023-08-19T03:15:14.281Z,25.54
2023-08-19T03:17:42.015Z,25.88
2023-08-19T03:20:11.054Z,25.86
2023-08-19T03:22:39.516Z,26.23
2023-08-19T03:25:09.082Z,25.52
2023-08-19T03:27:36.779Z,24.92
2023-08-19T03:30:05.364Z,25.42
2023-08-19T03:32:33.273Z,24.93
2023-08-19T03:35:01.114Z,25.39
2023-08-19T03:37:28.806Z,25.00
2023-08-19T03:39:56.520Z,24.90
2023-08-19T03:42:26.056Z,25.16
2023-08-19T03:44:54.108Z,24.37
2023-08-19T03:47:22.196Z,24.32
2023-08-19T03:49:49.908Z,24.84
2023-08-19T03:52:18.107Z,25.24
2023-08-19T03:54:45.875Z,24.58
2023-08-19T03:57:13.614Z,24.47
2023-08-19T03:59:43.129Z,24.36
2023-08-19T04:02:10.848Z,24.75
2023-08-19T04:04:38.729Z,25.08
2023-08-19T04:07:06.708Z,24.19
2023-08-19T04:09:34.437Z,24.48
2023-08-19T04:12:02.198Z,24.24
2023-08-19T04:14:30.126Z,23.99
2023-08-19T04:16:59.287Z,24.80
2023-08-19T04:19:27.020Z,24.70
2023-08-19T04:21:54.733Z,24.23
2023-08-19T04:24:22.404Z,24.70
2023-08-19T04:26:50.265Z,25.20
2023-08-19T04:29:17.952Z,25.52
2023-08-19T04:31:46.222Z,24.86
2023-08-19T04:34:15.414Z,24.60
2023-08-19T04:36:43.221Z,25.24
2023-08-19T04:39:10.977Z,25.20
2023-08-19T04:41:38.672Z,24.98
2023-08-19T04:44:07.408Z,24.97
2023-08-19T04:46:35.303Z,25.44
2023-08-19T04:49:04.312Z,25.36
2023-08-19T04:51:33.830Z,25.39
2023-08-19T04:54:01.768Z,25.71
2023-08-19T04:56:29.433Z,25.62
2023-08-19T04:59:01.237Z,25.69
2023-08-19T05:01:29.039Z,25.73
2023-08-19T05:03:56.940Z,25.40
2023-08-19T05:06:24.724Z,26.20
2023-08-19T05:08:54.235Z,25.48
2023-08-19T05:11:21.921Z,26.29
2023-08-19T05:13:49.646Z,26.30
2023-08-19T05:16:17.450Z,26.63
2023-08-19T05:18:45.166Z,26.20
2023-08-19T05:21:12.862Z,26.61
2023-08-19T05:23:40.581Z,26.80
2023-08-19T05:26:09.963Z,27.24
2023-08-19T05:28:37.979Z,27.04
2023-08-19T05:31:05.702Z,27.53
2023-08-19T05:33:33.447Z,27.28
2023-08-19T05:36:01.200Z,27.26
2023-08-19T05:38:28.867Z,27.61
2023-08-19T05:40:58.598Z,27.39
2023-08-19T05:43:27.701Z,27.50
2023-08-19T05:45:55.756Z,27.42
2023-08-19T05:48:25.298Z,27.65
2023-08-19T05:50:52.987Z,27.75
2023-08-19T05:53:20.654Z,27.60
2023-08-19T05:55:48.890Z,27.96
2023-08-19T05:58:17.197Z,28.04
2023-08-19T06:00:46.323Z,27.99
2023-08-19T06:03:14.718Z,27.48
2023-08-19T06:05:43.031Z,27.85
2023-08-19T06:08:11.201Z,28.55
2023-08-19T06:10:44.795Z,27.91
2023-08-19T06:13:12.626Z,28.03
2023-08-19T06:15:40.339Z,28.20
2023-08-19T06:18:09.799Z,28.38
2023-08-19T06:20:37.749Z,28.84
2023-08-19T06:23:05.818Z,27.81
2023-08-19T06:25:34.048Z,28.61
2023-08-19T06:28:01.710Z,28.91
2023-08-19T06:30:29.489Z,28.62
2023-08-19T06:32:57.714Z,29.24
2023-08-19T06:35:28.192Z,29.18
2023-08-19T06:37:57.937Z,29.04
2023-08-19T06:40:27.238Z,29.43
2023-08-19T06:42:55.455Z,29.11
2023-08-19T06:45:24.463Z,29.34
2023-08-19T06:47:54.951Z,29.22
2023-08-19T06:50:24.221Z,28.59
2023-08-19T06:52:54.001Z,29.48
2023-08-19T06:55:36.534Z,29.01
2023-08-19T06:58:05.789Z,29.80
2023-08-19T07:00:34.704Z,30.08
2023-08-19T07:03:14.095Z,29.22
2023-08-19T07:05:42.015Z,28.36
2023-08-19T07:08:12.866Z,28.87
2023-08-19T07:10:41.770Z,30.28
2023-08-19T07:13:10.948Z,29.64
2023-08-19T07:15:40.140Z,30.13
2023-08-19T07:18:11.624Z,30.50
2023-08-19T07:20:39.681Z,30.92
2023-08-19T07:23:08.661Z,30.15
2023-08-19T07:25:38.199Z,31.01
2023-08-19T07:28:07.053Z,30.59
2023-08-19T07:30:35.605Z,31.18
2023-08-19T07:33:05.458Z,31.55
2023-08-19T07:35:33.245Z,32.13
2023-08-19T07:38:00.935Z,31.46
2023-08-19T07:40:28.619Z,31.49
2023-08-19T07:42:58.190Z,30.39
2023-08-19T07:45:26.127Z,31.93
2023-08-19T07:47:53.886Z,31.76
2023-08-19T07:50:21.768Z,31.03
2023-08-19T07:52:49.607Z,31.97
2023-08-19T07:55:17.453Z,31.37
2023-08-19T07:57:45.172Z,31.78
2023-08-19T08:00:14.974Z,32.06
2023-08-19T08:02:42.688Z,32.39
2023-08-19T08:05:11.668Z,32.64
2023-08-19T08:07:39.492Z,31.50
2023-08-19T08:10:07.752Z,30.85
2023-08-19T08:12:35.505Z,32.18
2023-08-19T08:15:03.842Z,32.55
2023-08-19T08:17:33.561Z,32.76
2023-08-19T08:20:01.374Z,32.10
2023-08-19T08:22:29.334Z,31.28
2023-08-19T08:24:57.806Z,31.29
2023-08-19T08:27:25.547Z,32.88
2023-08-19T08:29:53.602Z,31.61
2023-08-19T08:32:21.358Z,32.45
2023-08-19T08:34:50.583Z,32.63
2023-08-19T08:37:18.269Z,33.62
2023-08-19T08:39:46.663Z,33.20
2023-08-19T08:42:14.725Z,32.88
2023-08-19T08:44:42.680Z,32.15
2023-08-19T08:47:10.668Z,32.32
2023-08-19T08:49:38.851Z,32.34
2023-08-19T08:52:08.628Z,32.31
2023-08-19T08:54:36.329Z,31.59
2023-08-19T08:57:04.072Z,33.57
2023-08-19T08:59:32.154Z,31.29
2023-08-19T09:02:01.126Z,33.09
2023-08-19T09:04:30.708Z,33.24
2023-08-19T09:07:06.623Z,33.05
2023-08-19T09:09:36.698Z,33.13
2023-08-19T09:12:06.611Z,33.52
2023-08-19T09:14:41.113Z,33.67
2023-08-19T09:17:09.006Z,33.20
2023-08-19T09:19:37.504Z,33.83
2023-08-19T09:22:13.002Z,33.68
2023-08-19T09:24:42.097Z,34.95
2023-08-19T09:27:09.862Z,34.86
2023-08-19T09:29:37.894Z,34.00
2023-08-19T09:32:06.473Z,34.71
2023-08-19T09:34:34.745Z,34.20
2023-08-19T09:37:03.925Z,34.04
2023-08-19T09:39:35.831Z,34.23
2023-08-19T09:42:05.304Z,34.27
2023-08-19T09:44:33.933Z,35.30
2023-08-19T09:47:04.493Z,34.78
2023-08-19T09:49:32.300Z,35.19
2023-08-19T09:52:00.455Z,35.15
2023-08-19T09:54:28.289Z,35.41
2023-08-19T09:56:58.295Z,36.06
2023-08-19T09:59:28.270Z,35.68
2023-08-19T10:01:56.127Z,36.13
2023-08-19T10:04:24.313Z,35.97
2023-08-19T10:06:54.177Z,35.10
2023-08-19T10:09:24.610Z,35.88
2023-08-19T10:11:55.252Z,36.06
2023-08-19T10:14:30.948Z,36.03
2023-08-19T10:16:59.697Z,37.01
2023-08-19T10:19:28.561Z,35.50
2023-08-19T10:21:57.798Z,36.33
2023-08-19T10:24:26.064Z,36.04
2023-08-19T10:26:54.012Z,35.17
2023-08-19T10:29:21.831Z,36.17
2023-08-19T10:31:51.269Z,35.51
2023-08-19T10:34:26.820Z,36.43
2023-08-19T10:37:08.573Z,36.01
2023-08-19T10:39:36.425Z,35.12
2023-08-19T10:42:04.933Z,34.78
2023-08-19T10:44:34.557Z,34.58
2023-08-19T10:47:15.084Z,35.92
2023-08-19T10:49:43.066Z,35.02
2023-08-19T10:52:22.072Z,36.64
2023-08-19T10:54:49.847Z,35.37
2023-08-19T10:57:23.373Z,35.46
2023-08-19T10:59:53.523Z,36.27
2023-08-19T11:02:22.814Z,34.72
2023-08-19T11:04:51.793Z,35.79
2023-08-19T11:07:20.170Z,36.28
2023-08-19T11:09:49.380Z,36.94
2023-08-19T11:12:18.352Z,36.80
2023-08-19T11:14:48.681Z,36.54
2023-08-19T11:17:39.702Z,34.47
2023-08-19T11:20:11.774Z,36.54
2023-08-19T11:22:43.458Z,36.39
2023-08-19T11:25:11.295Z,36.99
2023-08-19T11:27:39.056Z,36.55
2023-08-19T11:30:10.261Z,34.35
2023-08-19T11:32:38.171Z,36.89
2023-08-19T11:35:06.642Z,35.69
2023-08-19T11:37:35.720Z,35.57
2023-08-19T11:40:14.737Z,34.19
2023-08-19T11:42:50.350Z,33.81
2023-08-19T11:45:19.341Z,33.83
2023-08-19T11:47:47.357Z,33.70
2023-08-19T11:50:15.416Z,35.35
2023-08-19T11:52:51.316Z,35.17
2023-08-19T11:55:19.050Z,35.93
2023-08-19T11:57:46.705Z,36.57
2023-08-19T12:00:17.448Z,35.22
2023-08-19T12:05:23.415Z,34.70
2023-08-19T12:07:52.568Z,35.29
2023-08-19T12:10:20.584Z,34.16
2023-08-19T12:13:00.965Z,33.83
2023-08-19T12:15:28.847Z,33.35
2023-08-19T12:17:57.858Z,35.61
2023-08-19T12:20:25.746Z,36.19
2023-08-19T12:22:54.888Z,35.01
2023-08-19T12:25:23.249Z,36.05
2023-08-19T12:27:50.961Z,36.00
2023-08-19T12:30:18.656Z,35.62
2023-08-19T12:32:46.381Z,35.00
2023-08-19T12:35:14.337Z,33.66
2023-08-19T12:37:42.173Z,34.81
2023-08-19T12:40:12.021Z,33.33
2023-08-19T12:42:48.242Z,32.97
2023-08-19T12:45:16.809Z,33.87
2023-08-19T12:47:44.602Z,33.30
2023-08-19T12:50:13.536Z,32.68
2023-08-19T12:52:43.412Z,34.48
2023-08-19T12:55:13.892Z,34.24
2023-08-19T12:57:43.804Z,33.94
2023-08-19T13:00:13.371Z,33.79
2023-08-19T13:02:41.472Z,32.81
2023-08-19T13:05:09.772Z,31.61
2023-08-19T13:07:37.477Z,32.24
2023-08-19T13:10:06.248Z,31.41
2023-08-19T13:12:35.485Z,32.01
2023-08-19T13:15:03.917Z,31.82
2023-08-19T13:17:31.662Z,30.83
2023-08-19T13:19:59.355Z,31.64
2023-08-19T13:22:27.205Z,31.60
2023-08-19T13:24:54.970Z,33.99
2023-08-19T13:27:22.686Z,34.08
2023-08-19T13:29:51.806Z,33.33
2023-08-19T13:32:19.494Z,33.01
2023-08-19T13:34:47.216Z,32.73
2023-08-19T13:37:14.921Z,33.39
2023-08-19T13:39:42.697Z,32.55
2023-08-19T13:42:10.496Z,31.33
2023-08-19T13:44:38.206Z,30.87
2023-08-19T13:47:07.571Z,30.94
2023-08-19T13:49:35.544Z,29.51
2023-08-19T13:52:03.709Z,30.09
2023-08-19T13:54:31.434Z,30.16
2023-08-19T13:57:00.061Z,30.33
2023-08-19T13:59:27.789Z,31.34
2023-08-19T14:01:55.551Z,31.27
2023-08-19T14:04:24.916Z,31.29
2023-08-19T14:06:52.778Z,30.90
2023-08-19T14:09:20.462Z,29.77
2023-08-19T14:11:48.167Z,30.85
2023-08-19T14:14:15.984Z,30.75
2023-08-19T14:16:54.210Z,31.61
2023-08-19T14:19:21.914Z,30.48
2023-08-19T14:21:51.081Z,30.03
2023-08-19T14:24:18.772Z,31.08
2023-08-19T14:26:46.577Z,29.43
2023-08-19T14:29:14.536Z,28.90
2023-08-19T14:31:42.288Z,29.26
2023-08-19T14:34:09.956Z,29.49
2023-08-19T14:36:37.675Z,28.30
2023-08-19T14:39:07.142Z,28.95
2023-08-19T14:41:34.817Z,29.17
2023-08-19T14:44:02.531Z,30.65
2023-08-19T14:46:30.250Z,28.81
2023-08-19T14:48:58.205Z,29.83
2023-08-19T14:51:25.852Z,29.49
2023-08-19T14:53:53.716Z,28.67
2023-08-19T14:56:22.838Z,29.06
2023-08-19T14:58:50.952Z,29.23
2023-08-19T15:01:19.908Z,29.39
2023-08-19T15:03:47.760Z,30.68
2023-08-19T15:06:16.001Z,28.21
2023-08-19T15:08:43.718Z,28.92
2023-08-19T15:11:12.564Z,29.50
2023-08-19T15:13:41.750Z,28.74
2023-08-19T15:16:09.684Z,28.29
2023-08-19T15:18:37.452Z,28.15
2023-08-19T15:21:05.418Z,29.32
2023-08-19T15:23:33.131Z,29.39
2023-08-19T15:26:00.815Z,29.09
2023-08-19T15:28:28.498Z,28.35
2023-08-19T15:30:57.601Z,29.45
2023-08-19T15:33:25.458Z,27.89
2023-08-19T15:35:53.248Z,28.29
2023-08-19T15:38:21.040Z,30.74
2023-08-19T15:40:48.859Z,30.13
2023-08-19T15:43:16.599Z,30.82
2023-08-19T15:45:44.332Z,29.47
2023-08-19T15:48:13.442Z,29.89
2023-08-19T15:50:41.129Z,30.34
2023-08-19T15:53:08.883Z,31.11
2023-08-19T15:55:37.399Z,31.54
2023-08-19T15:58:05.489Z,29.78
2023-08-19T16:00:33.211Z,30.20
2023-08-19T16:03:01.082Z,28.89
2023-08-19T16:05:30.255Z,28.01
2023-08-19T16:07:59.255Z,27.70
2023-08-19T16:10:27.001Z,28.69
2023-08-19T16:12:54.734Z,28.06
2023-08-19T16:15:22.440Z,28.16
2023-08-19T16:17:50.524Z,29.29
2023-08-19T16:20:18.401Z,28.92
2023-08-19T16:22:48.002Z,28.40
2023-08-19T16:25:15.989Z,29.63
2023-08-19T16:27:43.693Z,30.05
2023-08-19T16:30:12.700Z,28.51
2023-08-19T16:32:40.436Z,28.57
2023-08-19T16:35:09.247Z,28.63
2023-08-19T16:40:20.148Z,29.04
2023-08-19T16:42:47.869Z,30.13
2023-08-19T16:45:15.592Z,29.55
2023-08-19T16:47:43.355Z,28.79
2023-08-19T16:50:11.571Z,29.35
2023-08-19T16:52:39.601Z,29.68
2023-08-19T16:55:08.968Z,30.36
2023-08-19T16:57:39.805Z,31.45
2023-08-19T17:00:09.177Z,31.53
2023-08-19T17:02:37.231Z,31.35
2023-08-19T17:05:05.591Z,30.00
2023-08-19T17:07:33.657Z,29.38
2023-08-19T17:10:02.049Z,31.84
2023-08-19T17:12:31.489Z,29.38
2023-08-19T17:15:00.611Z,29.07
2023-08-19T17:17:28.397Z,30.44
2023-08-19T17:19:56.303Z,29.63
2023-08-19T17:22:24.187Z,30.24
2023-08-19T17:25:13.537Z,31.11
2023-08-19T17:27:41.263Z,29.85
2023-08-19T17:30:12.103Z,30.06
2023-08-19T17:33:04.674Z,29.51
2023-08-19T17:35:36.258Z,28.73
2023-08-19T17:38:05.119Z,29.99
2023-08-19T17:40:33.306Z,28.83
2023-08-19T17:43:01.015Z,27.93
2023-08-19T17:45:30.266Z,29.91
2023-08-19T17:47:57.965Z,29.44
2023-08-19T17:53:01.871Z,29.93
2023-08-19T17:55:29.658Z,31.40
2023-08-19T17:57:57.586Z,29.81
2023-08-19T18:00:25.606Z,29.76
2023-08-19T18:02:54.847Z,28.31
2023-08-19T18:05:22.676Z,27.96
2023-08-19T18:07:50.371Z,28.05
2023-08-19T18:10:18.261Z,30.55
2023-08-19T18:12:46.078Z,30.34
2023-08-19T18:15:14.211Z,29.71
2023-08-19T18:17:43.984Z,28.88
2023-08-19T18:20:13.759Z,29.31
2023-08-19T18:22:41.456Z,28.81
2023-08-19T18:25:10.408Z,29.16
2023-08-19T18:27:40.437Z,29.45
2023-08-19T18:30:10.210Z,28.77
2023-08-19T18:32:38.200Z,27.96
2023-08-19T18:35:06.889Z,28.62
2023-08-19T18:37:36.402Z,28.08
2023-08-19T18:40:05.737Z,28.24
2023-08-19T18:42:34.716Z,28.87
2023-08-19T18:45:02.580Z,28.18
2023-08-19T18:47:30.390Z,27.57
2023-08-19T18:49:58.157Z,27.39
2023-08-19T18:52:25.833Z,27.82
2023-08-19T18:54:55.328Z,28.13
2023-08-19T18:57:22.992Z,27.92
2023-08-19T18:59:50.649Z,27.84
2023-08-19T19:02:18.347Z,26.84
2023-08-19T19:04:46.156Z,26.26
2023-08-19T19:07:13.839Z,27.50
2023-08-19T19:09:41.508Z,27.01
2023-08-19T19:12:11.063Z,27.71
2023-08-19T19:14:38.754Z,27.60
2023-08-19T19:17:28.615Z,27.65
2023-08-19T19:19:56.293Z,27.27
2023-08-19T19:22:24.010Z,27.49
2023-08-19T19:24:51.663Z,27.44
2023-08-19T19:27:20.940Z,26.56
2023-08-19T19:29:48.617Z,27.50
2023-08-19T19:32:16.296Z,27.72
2023-08-19T19:34:44.164Z,26.80
2023-08-19T19:37:11.837Z,27.37
2023-08-19T19:39:39.540Z,26.76
2023-08-19T19:42:07.656Z,27.16
2023-08-19T19:44:36.767Z,27.23
2023-08-19T19:47:22.789Z,27.25
2023-08-19T19:49:50.822Z,26.59
2023-08-19T19:52:18.521Z,27.85
2023-08-19T19:54:47.505Z,27.05
2023-08-19T19:57:15.186Z,26.18
2023-08-19T19:59:44.266Z,26.80
2023-08-19T20:02:12.210Z,27.37
2023-08-19T20:04:40.233Z,26.05
2023-08-19T20:07:08.099Z,27.05
2023-08-19T20:09:35.932Z,26.52
2023-08-19T20:12:03.584Z,27.04
2023-08-19T20:14:31.252Z,27.23
2023-08-19T20:17:00.304Z,27.37
2023-08-19T20:19:27.982Z,27.08
2023-08-19T20:21:55.789Z,27.13
2023-08-19T20:24:23.445Z,27.16
2023-08-19T20:26:51.167Z,26.49
2023-08-19T20:29:19.060Z,26.86
2023-08-19T20:31:46.776Z,26.64
2023-08-19T20:34:16.010Z,26.79
2023-08-19T20:36:44.309Z,26.62
2023-08-19T20:39:16.069Z,26.51
2023-08-19T20:41:44.223Z,26.63
2023-08-19T20:44:12.627Z,27.15
2023-08-19T20:46:40.612Z,27.68
2023-08-19T20:49:09.265Z,27.43
2023-08-19T20:51:38.415Z,26.71
2023-08-19T20:54:07.573Z,26.61
2023-08-19T20:56:35.520Z,26.25
2023-08-19T20:59:03.230Z,26.84
2023-08-19T21:01:32.984Z,26.88
2023-08-19T21:04:00.793Z,26.54
2023-08-19T21:06:29.732Z,26.24
2023-08-19T21:08:58.925Z,26.26
2023-08-19T21:11:26.719Z,26.49
2023-08-19T21:13:54.388Z,25.43
2023-08-19T21:16:22.378Z,26.21
2023-08-19T21:18:50.154Z,26.25
2023-08-19T21:21:18.303Z,25.19
2023-08-19T21:23:45.998Z,25.57
2023-08-19T21:26:15.049Z,25.28
2023-08-19T21:28:42.756Z,25.04
2023-08-19T21:31:10.449Z,25.32
2023-08-19T21:33:38.125Z,24.51
2023-08-19T21:36:06.366Z,25.58
2023-08-19T21:38:34.141Z,24.99
2023-08-19T21:41:01.881Z,25.39
2023-08-19T21:43:31.065Z,24.72
2023-08-19T21:45:59.741Z,25.45
2023-08-19T21:48:27.575Z,25.72
2023-08-19T21:50:55.245Z,24.73
2023-08-19T21:53:22.894Z,25.25
2023-08-19T21:55:51.239Z,24.98
2023-08-19T21:58:18.910Z,25.46
2023-08-19T22:00:48.032Z,24.97
2023-08-19T22:03:15.737Z,25.11
2023-08-19T22:05:46.985Z,24.48
2023-08-19T22:08:15.242Z,24.52
2023-08-19T22:10:43.176Z,24.92
2023-08-19T22:13:11.400Z,25.27
2023-08-19T22:15:39.355Z,24.15
2023-08-19T22:18:08.943Z,24.66
2023-08-19T22:23:07.283Z,25.19
2023-08-19T22:25:34.973Z,24.56
2023-08-19T22:28:02.658Z,25.01
2023-08-19T22:30:30.366Z,24.57
2023-08-19T22:32:58.240Z,24.25
2023-08-19T22:35:27.381Z,24.44
2023-08-19T22:37:55.176Z,24.95
2023-08-19T22:40:23.096Z,24.36
2023-08-19T22:42:50.751Z,24.28
2023-08-19T22:45:18.537Z,24.50
2023-08-19T22:47:46.271Z,24.81
2023-08-19T22:50:14.235Z,24.58
2023-08-19T22:52:43.433Z,25.26
2023-08-19T22:55:11.678Z,24.05
2023-08-19T22:57:39.316Z,23.24
2023-08-19T23:00:08.653Z,22.89
2023-08-19T23:02:36.458Z,23.30
2023-08-19T23:05:04.347Z,23.67
2023-08-19T23:07:33.641Z,23.67
2023-08-19T23:10:06.157Z,23.41
2023-08-19T23:12:33.824Z,23.44
2023-08-19T23:15:01.703Z,23.52
2023-08-19T23:17:29.506Z,24.28
2023-08-19T23:19:57.447Z,24.42
2023-08-19T23:22:25.124Z,23.61
2023-08-19T23:24:53.187Z,23.83
2023-08-19T23:27:22.646Z,23.63
2023-08-19T23:29:50.414Z,24.39
2023-08-19T23:32:19.134Z,24.22
2023-08-19T23:34:46.827Z,23.27
2023-08-19T23:37:14.493Z,24.33
2023-08-19T23:39:42.394Z,24.43
2023-08-19T23:42:10.338Z,23.98
2023-08-19T23:44:39.410Z,24.07
2023-08-19T23:47:08.650Z,23.84
2023-08-19T23:49:36.811Z,23.41
2023-08-19T23:52:06.501Z,23.74
2023-08-19T23:54:34.829Z,23.14
2023-08-19T23:57:03.256Z,23.38
2023-08-19T23:59:31.495Z,23.44
